createdAt,value
2023-01-06T00:01:37.931Z,99.90
2023-01-06T00:04:06.503Z,99.90
2023-01-06T00:06:35.878Z,99.90
2023-01-06T00:09:09.867Z,99.90
2023-01-06T00:11:37.616Z,99.90
2023-01-06T00:14:05.080Z,99.90
2023-01-06T00:16:38.174Z,99.90
2023-01-06T00:19:27.390Z,99.90
2023-01-06T00:22:00.937Z,99.90
2023-01-06T00:24:38.565Z,99.30
2023-01-06T00:27:07.825Z,97.90
2023-01-06T00:29:49.566Z,97.10
2023-01-06T00:32:25.030Z,98.20
2023-01-06T00:34:55.297Z,99.20
2023-01-06T00:37:22.711Z,99.90
2023-01-06T00:39:55.509Z,99.90
2023-01-06T00:42:26.502Z,99.20
2023-01-06T00:44:57.309Z,98.40
2023-01-06T00:47:28.000Z,99.00
2023-01-06T00:49:56.060Z,99.90
2023-01-06T00:52:23.700Z,99.90
2023-01-06T00:54:51.376Z,99.90
2023-01-06T00:57:18.998Z,99.90
2023-01-06T00:59:46.798Z,99.90
2023-01-06T01:02:17.314Z,99.90
2023-01-06T01:04:48.150Z,99.90
2023-01-06T01:07:21.259Z,99.90
2023-01-06T01:09:58.955Z,99.60
2023-01-06T01:12:32.678Z,99.70
2023-01-06T01:15:11.772Z,99.50
2023-01-06T01:17:45.820Z,99.30
2023-01-06T01:20:13.404Z,99.00
2023-01-06T01:22:52.320Z,99.30
2023-01-06T01:25:20.544Z,99.90
2023-01-06T01:27:49.488Z,99.90
2023-01-06T01:30:24.339Z,99.90
2023-01-06T01:33:03.336Z,99.90
2023-01-06T01:35:30.981Z,99.90
2023-01-06T01:38:00.134Z,99.90
2023-01-06T01:40:31.488Z,99.90
2023-01-06T01:42:59.056Z,99.90
2023-01-06T01:45:42.406Z,99.90
2023-01-06T01:48:34.358Z,99.90
2023-01-06T01:51:03.208Z,99.90
2023-01-06T01:53:34.352Z,99.90
2023-01-06T01:56:06.082Z,99.90
2023-01-06T02:02:35.466Z,99.90
2023-01-06T02:05:09.229Z,99.90
2023-01-06T02:07:41.753Z,99.90
2023-01-06T02:10:13.043Z,99.90
2023-01-06T02:12:40.819Z,99.90
2023-01-06T02:15:29.980Z,99.90
2023-01-06T02:18:27.215Z,99.90
2023-01-06T02:25:21.986Z,99.90
2023-01-06T02:28:24.252Z,99.90
2023-01-06T02:31:20.487Z,99.90
2023-01-06T02:35:00.392Z,97.30
2023-01-06T02:38:27.579Z,93.70
2023-01-06T02:41:21.751Z,89.40
2023-01-06T02:44:03.653Z,86.20
2023-01-06T02:46:59.782Z,89.60
2023-01-06T02:50:42.224Z,88.70
2023-01-06T02:54:08.696Z,90.70
2023-01-06T02:57:39.693Z,88.20
2023-01-06T03:00:53.620Z,86.40
2023-01-06T03:04:57.775Z,83.50
2023-01-06T03:07:58.476Z,84.80
2023-01-06T03:10:50.984Z,82.30
2023-01-06T03:13:59.665Z,83.50
2023-01-06T03:16:37.641Z,83.40
2023-01-06T03:19:13.413Z,82.20
2023-01-06T03:21:42.063Z,81.30
2023-01-06T03:24:42.984Z,80.40
2023-01-06T03:27:30.576Z,82.20
2023-01-06T03:30:17.906Z,81.90
2023-01-06T03:33:29.353Z,85.20
2023-01-06T03:36:01.513Z,86.30
2023-01-06T03:39:01.612Z,83.40
2023-01-06T03:42:06.457Z,84.60
2023-01-06T03:45:31.390Z,81.50
2023-01-06T03:52:37.365Z,82.00
2023-01-06T03:55:26.877Z,84.80
2023-01-06T03:58:05.159Z,84.40
2023-01-06T04:00:38.004Z,83.30
2023-01-06T04:03:15.210Z,84.10
2023-01-06T04:06:10.479Z,82.50
2023-01-06T04:08:59.791Z,80.90
2023-01-06T04:12:03.197Z,83.60
2023-01-06T04:25:04.412Z,87.20
2023-01-06T04:33:19.683Z,87.90
2023-01-06T04:44:05.705Z,89.90
2023-01-06T04:52:33.840Z,90.50
2023-01-06T04:58:16.781Z,90.80
2023-01-06T05:01:26.029Z,91.30
2023-01-06T05:04:46.604Z,90.60
2023-01-06T05:07:21.512Z,90.90
2023-01-06T05:10:25.960Z,90.60
2023-01-06T05:13:14.260Z,91.10
2023-01-06T05:15:55.118Z,91.30
2023-01-06T05:18:24.791Z,90.70
2023-01-06T05:21:23.070Z,90.40
2023-01-06T05:23:57.564Z,89.20
2023-01-06T05:26:57.657Z,88.80
2023-01-06T05:32:19.044Z,88.50
2023-01-06T05:35:04.530Z,88.40
2023-01-06T05:38:04.301Z,89.00
2023-01-06T05:40:55.049Z,87.30
2023-01-06T05:46:46.433Z,84.90
2023-01-06T05:49:37.354Z,84.10
2023-01-06T05:55:32.460Z,82.80
2023-01-06T05:58:22.914Z,85.00
2023-01-06T06:01:40.787Z,83.70
2023-01-06T06:04:08.853Z,84.90
2023-01-06T06:06:56.007Z,84.70
2023-01-06T06:17:04.040Z,83.90
2023-01-06T06:23:25.466Z,84.20
2023-01-06T06:26:09.035Z,83.90
2023-01-06T06:32:24.862Z,86.40
2023-01-06T06:35:21.383Z,86.20
2023-01-06T06:42:00.416Z,86.50
2023-01-06T06:45:22.560Z,87.60
2023-01-06T06:48:02.989Z,87.60
2023-01-06T07:01:49.703Z,87.20
2023-01-06T07:12:44.241Z,91.00
2023-01-06T07:15:53.152Z,91.30
2023-01-06T07:18:27.452Z,90.80
2023-01-06T07:21:11.508Z,91.20
2023-01-06T07:23:39.768Z,91.90
2023-01-06T07:29:40.950Z,91.40
2023-01-06T07:32:22.102Z,91.80
2023-01-06T07:34:59.755Z,92.40
2023-01-06T07:37:33.763Z,92.60
2023-01-06T07:40:11.507Z,91.90
2023-01-06T07:43:03.155Z,92.20
2023-01-06T07:50:28.022Z,91.50
2023-01-06T07:53:28.722Z,92.20
2023-01-06T07:56:18.705Z,92.30
2023-01-06T07:59:20.295Z,92.70
2023-01-06T08:02:21.926Z,91.80
2023-01-06T08:04:55.600Z,92.20
2023-01-06T08:11:01.506Z,92.90
2023-01-06T08:13:34.872Z,93.10
2023-01-06T08:16:10.735Z,92.70
2023-01-06T08:18:38.799Z,91.80
2023-01-06T08:21:10.485Z,90.30
2023-01-06T08:23:41.446Z,89.10
2023-01-06T08:26:17.413Z,88.90
2023-01-06T08:28:47.674Z,87.80
2023-01-06T08:31:19.767Z,86.90
2023-01-06T08:33:50.145Z,86.20
2023-01-06T08:36:24.384Z,84.60
2023-01-06T08:38:51.736Z,83.70
2023-01-06T08:41:31.171Z,84.10
2023-01-06T08:43:59.050Z,83.70
2023-01-06T08:46:26.924Z,84.40
2023-01-06T08:48:58.763Z,85.00
2023-01-06T08:51:26.452Z,85.00
2023-01-06T08:54:00.955Z,84.80
2023-01-06T08:56:38.559Z,86.80
2023-01-06T09:00:02.544Z,87.30
2023-01-06T09:02:39.391Z,86.40
2023-01-06T09:06:05.565Z,86.00
2023-01-06T09:08:41.292Z,86.80
2023-01-06T09:14:32.000Z,85.00
2023-01-06T09:17:56.318Z,87.20
2023-01-06T09:23:24.930Z,86.40
2023-01-06T09:26:15.736Z,84.90
2023-01-06T09:32:01.699Z,83.60
2023-01-06T09:38:40.571Z,83.60
2023-01-06T09:46:25.392Z,77.00
2023-01-06T09:49:51.469Z,79.60
2023-01-06T09:53:20.551Z,77.30
2023-01-06T09:59:47.838Z,77.90
2023-01-06T10:13:25.756Z,78.00
2023-01-06T10:17:05.004Z,76.30
2023-01-06T10:19:46.032Z,73.60
2023-01-06T10:22:25.853Z,71.80
2023-01-06T10:29:11.431Z,69.40
2023-01-06T10:35:18.184Z,67.00
2023-01-06T10:38:49.934Z,59.10
2023-01-06T10:46:04.826Z,56.40
2023-01-06T10:49:22.566Z,50.90
2023-01-06T10:52:50.814Z,51.50
2023-01-06T10:56:18.156Z,51.10
2023-01-06T10:58:59.837Z,54.00
2023-01-06T11:09:10.822Z,47.90
2023-01-06T11:21:56.944Z,45.10
2023-01-06T11:27:44.558Z,45.20
2023-01-06T11:31:37.462Z,42.50
2023-01-06T11:54:36.803Z,46.20
2023-01-06T12:03:00.583Z,42.10
2023-01-06T12:10:27.472Z,46.30
2023-01-06T12:14:28.406Z,45.70
2023-01-06T12:26:00.035Z,46.60
2023-01-06T12:34:56.301Z,48.50
2023-01-06T12:38:25.580Z,48.80
2023-01-06T12:44:59.083Z,45.30
2023-01-06T12:52:25.961Z,47.00
2023-01-06T12:55:00.277Z,46.20
2023-01-06T13:01:43.817Z,43.90
2023-01-06T13:04:38.715Z,44.60
2023-01-06T13:07:38.703Z,43.40
2023-01-06T13:10:19.695Z,44.20
2023-01-06T13:16:04.473Z,43.20
2023-01-06T13:27:02.651Z,42.60
2023-01-06T13:31:32.007Z,43.60
2023-01-06T13:34:29.659Z,43.50
2023-01-06T13:41:04.100Z,42.60
2023-01-06T13:43:36.498Z,42.00
2023-01-06T13:50:10.703Z,43.50
2023-01-06T14:27:58.086Z,52.20
2023-01-06T14:31:20.846Z,53.30
2023-01-06T14:34:19.830Z,53.00
2023-01-06T14:37:53.164Z,54.70
2023-01-06T14:40:52.082Z,54.40
2023-01-06T14:50:46.598Z,60.30
2023-01-06T14:53:33.639Z,61.40
2023-01-06T14:56:06.145Z,61.80
2023-01-06T14:58:38.866Z,63.30
2023-01-06T15:01:44.365Z,65.50
2023-01-06T15:04:31.822Z,67.00
2023-01-06T15:07:29.848Z,70.70
2023-01-06T15:10:22.416Z,72.40
2023-01-06T15:13:03.003Z,73.80
2023-01-06T15:15:31.739Z,77.20
2023-01-06T15:18:03.548Z,79.90
2023-01-06T15:20:36.365Z,80.50
2023-01-06T15:23:04.154Z,83.30
2023-01-06T15:25:33.969Z,84.20
2023-01-06T15:28:04.926Z,86.60
2023-01-06T15:31:16.354Z,87.90
2023-01-06T15:34:13.069Z,88.90
2023-01-06T15:37:00.741Z,90.60
2023-01-06T15:39:56.365Z,92.70
2023-01-06T15:42:41.129Z,94.10
2023-01-06T15:45:40.756Z,95.20
2023-01-06T15:48:29.065Z,96.60
2023-01-06T15:51:03.440Z,98.00
2023-01-06T15:53:35.771Z,99.10
2023-01-06T15:56:29.006Z,99.70
2023-01-06T15:59:06.464Z,99.90
2023-01-06T16:02:01.059Z,99.90
2023-01-06T16:04:37.990Z,99.90
2023-01-06T16:07:43.493Z,99.90
2023-01-06T16:10:53.555Z,99.90
2023-01-06T16:13:32.618Z,99.60
2023-01-06T16:19:28.575Z,99.40
2023-01-06T16:21:56.121Z,99.90
2023-01-06T16:57:25.482Z,99.90
2023-01-06T17:58:56.967Z,99.90
2023-01-06T18:02:33.034Z,99.90
2023-01-06T18:24:36.294Z,99.90
2023-01-06T18:46:28.593Z,99.90
2023-01-06T18:58:01.006Z,99.90
2023-01-06T19:10:03.517Z,99.90
2023-01-06T19:13:11.017Z,99.90
2023-01-06T20:23:24.557Z,99.90
2023-01-06T20:27:23.068Z,99.90
2023-01-06T20:38:30.927Z,99.90
2023-01-06T20:47:33.703Z,99.90
2023-01-06T21:03:13.256Z,98.40
2023-01-06T21:06:02.930Z,97.20
2023-01-06T21:09:21.380Z,96.50
2023-01-06T21:15:17.899Z,95.00
2023-01-06T21:21:04.259Z,94.40
2023-01-06T21:23:41.909Z,94.00
2023-01-06T21:27:31.748Z,93.20
2023-01-06T21:51:16.572Z,92.40
2023-01-06T21:57:34.571Z,92.70
2023-01-06T22:07:13.706Z,92.70
2023-01-06T22:13:40.684Z,93.40
2023-01-06T22:17:21.912Z,92.90
2023-01-06T22:24:14.583Z,93.40
2023-01-06T22:27:36.984Z,93.40
2023-01-06T22:54:23.924Z,90.30
2023-01-06T22:56:51.293Z,88.90
2023-01-06T23:19:06.510Z,87.10
2023-01-06T23:22:04.472Z,86.20
2023-01-06T23:40:03.986Z,85.90
2023-01-06T23:53:33.400Z,84.90
2023-01-06T23:56:36.042Z,85.30
